createdAt,value
2018-07-19T00:00:54.735Z,12.70
2018-07-19T00:03:23.197Z,12.70
2018-07-19T00:05:51.701Z,12.70
2018-07-19T00:08:20.156Z,12.60
2018-07-19T00:13:16.774Z,12.60
2018-07-19T00:15:45.274Z,12.50
2018-07-19T00:18:13.770Z,12.50
2018-07-19T00:20:42.235Z,12.60
2018-07-19T00:23:10.702Z,12.70
2018-07-19T00:25:39.166Z,12.70
2018-07-19T00:28:07.730Z,12.60
2018-07-19T00:30:36.205Z,12.60
2018-07-19T00:33:04.685Z,12.50
2018-07-19T00:35:33.178Z,12.50
2018-07-19T00:38:01.645Z,12.50
2018-07-19T00:40:30.115Z,12.40
2018-07-19T00:42:58.618Z,12.40
2018-07-19T00:45:27.094Z,12.40
2018-07-19T00:47:55.551Z,12.50
2018-07-19T00:50:24.016Z,12.40
2018-07-19T00:52:52.479Z,12.40
2018-07-19T00:55:20.953Z,12.40
2018-07-19T00:57:49.457Z,12.50
2018-07-19T01:00:17.964Z,12.30
2018-07-19T01:02:46.446Z,12.30
2018-07-19T01:05:14.907Z,12.20
2018-07-19T01:07:43.379Z,12.20
2018-07-19T01:10:11.949Z,12.20
2018-07-19T01:12:40.394Z,12.10
2018-07-19T01:15:08.866Z,12.10
2018-07-19T01:17:37.355Z,12.20
2018-07-19T01:20:05.886Z,12.10
2018-07-19T01:22:34.347Z,12.10
2018-07-19T01:25:02.834Z,12.10
2018-07-19T01:27:31.300Z,12.10
2018-07-19T01:29:59.758Z,12.00
2018-07-19T01:32:28.244Z,11.90
2018-07-19T01:34:56.689Z,11.80
2018-07-19T01:37:25.160Z,11.70
2018-07-19T01:39:53.646Z,11.70
2018-07-19T01:42:30.246Z,11.60
2018-07-19T01:44:58.758Z,11.60
2018-07-19T01:47:27.268Z,11.70
2018-07-19T01:49:55.745Z,11.70
2018-07-19T01:52:24.238Z,11.70
2018-07-19T01:54:52.744Z,11.70
2018-07-19T01:57:21.621Z,11.80
2018-07-19T01:59:50.702Z,11.90
2018-07-19T02:02:19.691Z,11.80
2018-07-19T02:04:48.178Z,11.90
2018-07-19T02:07:16.710Z,11.80
2018-07-19T02:09:45.843Z,11.80
2018-07-19T02:12:14.293Z,11.70
2018-07-19T02:14:42.743Z,11.80
2018-07-19T02:17:11.198Z,11.70
2018-07-19T02:19:39.645Z,11.70
2018-07-19T02:22:08.167Z,11.60
2018-07-19T02:24:36.644Z,11.60
2018-07-19T02:27:05.122Z,11.60
2018-07-19T02:29:33.609Z,11.60
2018-07-19T02:32:02.111Z,11.60
2018-07-19T02:34:30.674Z,11.60
2018-07-19T02:36:59.125Z,11.60
2018-07-19T02:39:27.620Z,11.70
2018-07-19T02:41:56.086Z,11.60
2018-07-19T02:44:24.627Z,11.50
2018-07-19T02:46:53.071Z,11.50
2018-07-19T02:49:21.580Z,11.40
2018-07-19T02:51:50.050Z,11.40
2018-07-19T02:54:18.593Z,11.40
2018-07-19T02:56:47.064Z,11.30
2018-07-19T02:59:15.533Z,11.30
2018-07-19T03:01:44.015Z,11.20
2018-07-19T03:06:40.638Z,11.30
2018-07-19T03:09:09.109Z,11.30
2018-07-19T03:11:37.593Z,11.10
2018-07-19T03:14:06.040Z,11.10
2018-07-19T03:16:34.553Z,11.10
2018-07-19T03:19:03.086Z,11.10
2018-07-19T03:21:31.554Z,11.10
2018-07-19T03:23:59.998Z,11.10
2018-07-19T03:26:28.453Z,11.20
2018-07-19T03:28:56.900Z,11.10
2018-07-19T03:31:25.377Z,11.00
2018-07-19T03:33:53.829Z,11.00
2018-07-19T03:36:22.280Z,11.10
2018-07-19T03:38:50.713Z,11.00
2018-07-19T03:41:19.165Z,10.90
2018-07-19T03:43:47.613Z,10.90
2018-07-19T03:46:16.049Z,10.80
2018-07-19T03:48:44.486Z,10.80
2018-07-19T03:51:12.922Z,10.70
2018-07-19T03:53:41.377Z,10.70
2018-07-19T03:56:09.830Z,10.90
2018-07-19T03:58:38.307Z,10.90
2018-07-19T04:01:07.056Z,11.00
2018-07-19T04:03:35.584Z,10.90
2018-07-19T04:06:04.030Z,10.90
2018-07-19T04:08:32.449Z,10.90
2018-07-19T04:11:01.288Z,11.00
2018-07-19T04:13:31.698Z,11.20
2018-07-19T04:16:00.142Z,11.30
2018-07-19T04:18:28.616Z,11.20
2018-07-19T04:20:59.111Z,11.20
2018-07-19T04:23:29.152Z,11.20
2018-07-19T04:25:59.936Z,11.20
2018-07-19T04:28:30.128Z,11.20
2018-07-19T04:33:29.754Z,11.30
2018-07-19T04:35:58.258Z,11.40
2018-07-19T04:38:26.723Z,11.40
2018-07-19T04:40:55.219Z,11.50
2018-07-19T04:43:23.690Z,11.50
2018-07-19T04:45:52.155Z,11.70
2018-07-19T04:48:20.770Z,11.80
2018-07-19T04:50:49.106Z,11.80
2018-07-19T04:53:17.566Z,11.80
2018-07-19T04:55:46.023Z,11.90
2018-07-19T04:58:14.501Z,12.00
2018-07-19T05:00:42.989Z,12.10
2018-07-19T05:03:11.454Z,12.20
2018-07-19T05:05:39.934Z,12.40
2018-07-19T05:08:08.369Z,12.40
2018-07-19T05:10:36.817Z,12.60
2018-07-19T05:13:05.281Z,12.90
2018-07-19T05:15:33.713Z,13.20
2018-07-19T05:18:02.169Z,13.70
2018-07-19T05:20:30.633Z,14.20
2018-07-19T05:22:59.089Z,14.70
2018-07-19T05:25:27.518Z,15.00
2018-07-19T05:27:55.965Z,15.20
2018-07-19T05:30:24.426Z,15.50
2018-07-19T05:32:52.884Z,16.20
2018-07-19T05:35:21.574Z,16.50
2018-07-19T05:37:50.054Z,16.70
2018-07-19T05:40:18.489Z,17.10
2018-07-19T05:42:46.925Z,17.60
2018-07-19T05:45:15.387Z,18.10
2018-07-19T05:47:43.858Z,18.00
2018-07-19T05:50:12.309Z,18.30
2018-07-19T05:52:40.741Z,18.40
2018-07-19T05:55:09.187Z,18.70
2018-07-19T05:57:37.677Z,19.20
2018-07-19T06:00:06.202Z,19.60
2018-07-19T06:02:34.684Z,19.40
2018-07-19T06:05:03.159Z,19.90
2018-07-19T06:07:31.618Z,20.10
2018-07-19T06:10:00.070Z,20.40
2018-07-19T06:12:28.513Z,20.60
2018-07-19T06:14:56.944Z,21.00
2018-07-19T06:17:25.420Z,21.70
2018-07-19T06:19:53.851Z,21.80
2018-07-19T06:22:22.401Z,22.10
2018-07-19T06:24:50.849Z,22.10
2018-07-19T06:27:19.306Z,22.10
2018-07-19T06:29:47.763Z,22.00
2018-07-19T06:32:16.243Z,22.00
2018-07-19T06:34:44.685Z,22.60
2018-07-19T06:37:13.125Z,23.00
2018-07-19T06:39:41.561Z,23.20
2018-07-19T06:42:10.079Z,23.40
2018-07-19T06:44:38.558Z,23.80
2018-07-19T06:47:07.062Z,23.90
2018-07-19T06:49:35.509Z,24.40
2018-07-19T06:52:04.073Z,25.10
2018-07-19T06:54:32.518Z,24.80
2018-07-19T06:57:00.999Z,25.00
2018-07-19T06:59:29.452Z,25.70
2018-07-19T07:01:57.912Z,25.70
2018-07-19T07:04:26.342Z,26.20
2018-07-19T07:06:54.834Z,26.30
2018-07-19T07:09:23.300Z,26.60
2018-07-19T07:11:51.729Z,27.00
2018-07-19T07:14:20.869Z,27.10
2018-07-19T07:16:49.334Z,27.60
2018-07-19T07:19:17.767Z,27.90
2018-07-19T07:21:46.197Z,28.10
2018-07-19T07:24:14.669Z,28.20
2018-07-19T07:26:43.097Z,28.40
2018-07-19T07:29:11.537Z,28.20
2018-07-19T07:31:40.013Z,28.50
2018-07-19T07:34:09.024Z,28.80
2018-07-19T07:36:39.353Z,28.60
2018-07-19T07:39:09.823Z,28.50
2018-07-19T07:41:38.506Z,28.60
2018-07-19T07:44:07.004Z,28.70
2018-07-19T07:46:35.412Z,28.30
2018-07-19T07:51:31.981Z,29.60
2018-07-19T07:54:02.825Z,28.40
2018-07-19T07:56:31.413Z,27.80
2018-07-19T07:59:00.321Z,28.20
2018-07-19T08:01:28.773Z,27.60
2018-07-19T08:03:57.224Z,27.40
2018-07-19T08:06:25.690Z,27.20
2018-07-19T08:08:54.147Z,27.70
2018-07-19T08:11:22.573Z,29.20
2018-07-19T08:16:19.327Z,28.80
2018-07-19T08:18:47.792Z,29.00
2018-07-19T08:21:16.278Z,29.80
2018-07-19T08:23:44.713Z,30.50
2018-07-19T08:26:13.254Z,31.80
2018-07-19T08:28:41.701Z,31.70
2018-07-19T08:31:10.133Z,32.50
2018-07-19T08:33:38.576Z,32.30
2018-07-19T08:36:07.083Z,31.60
2018-07-19T08:41:03.666Z,31.40
2018-07-19T08:43:32.154Z,31.90
2018-07-19T08:46:00.664Z,32.80
2018-07-19T08:48:29.117Z,32.90
2018-07-19T08:50:57.578Z,31.90
2018-07-19T08:53:26.166Z,32.40
2018-07-19T08:55:54.675Z,32.90
2018-07-19T08:58:23.178Z,32.50
2018-07-19T09:00:51.814Z,32.80
2018-07-19T09:03:21.260Z,33.40
2018-07-19T09:05:49.740Z,32.60
2018-07-19T09:08:18.227Z,33.10
2018-07-19T09:13:16.234Z,33.30
2018-07-19T09:15:44.702Z,33.10
2018-07-19T09:18:13.189Z,32.50
2018-07-19T09:20:41.913Z,32.50
2018-07-19T09:23:10.353Z,33.50
2018-07-19T09:25:38.825Z,33.70
2018-07-19T09:28:07.288Z,34.00
2018-07-19T09:30:35.854Z,34.10
2018-07-19T09:33:04.365Z,33.90
2018-07-19T09:35:32.865Z,34.60
2018-07-19T09:38:01.309Z,35.20
2018-07-19T09:40:29.786Z,35.40
2018-07-19T09:42:59.427Z,34.60
2018-07-19T09:45:27.830Z,34.60
2018-07-19T09:47:56.266Z,35.30
2018-07-19T09:50:24.705Z,33.80
2018-07-19T09:52:53.189Z,33.50
2018-07-19T09:55:21.657Z,32.80
2018-07-19T09:57:50.253Z,33.90
2018-07-19T10:00:23.950Z,34.50
2018-07-19T10:02:52.439Z,35.40
2018-07-19T10:05:20.894Z,34.90
2018-07-19T10:07:49.366Z,34.70
2018-07-19T10:10:17.841Z,33.90
2018-07-19T10:12:46.308Z,34.40
2018-07-19T10:15:14.766Z,34.60
2018-07-19T10:17:43.183Z,34.70
2018-07-19T10:20:11.647Z,34.80
2018-07-19T10:22:40.097Z,33.60
2018-07-19T10:25:08.710Z,34.00
2018-07-19T10:27:37.142Z,34.90
2018-07-19T10:30:07.563Z,34.60
2018-07-19T10:32:37.189Z,34.20
2018-07-19T10:35:05.565Z,33.70
2018-07-19T10:37:34.076Z,33.60
2018-07-19T10:40:02.629Z,33.00
2018-07-19T10:42:31.081Z,32.30
2018-07-19T10:44:59.633Z,33.00
2018-07-19T10:47:28.154Z,32.70
2018-07-19T10:49:56.603Z,33.20
2018-07-19T10:52:25.377Z,33.20
2018-07-19T10:54:53.963Z,32.60
2018-07-19T10:57:22.502Z,32.70
2018-07-19T10:59:50.910Z,32.70
2018-07-19T11:02:19.375Z,33.10
2018-07-19T11:04:47.790Z,34.00
2018-07-19T11:07:16.255Z,34.00
2018-07-19T11:09:44.767Z,33.50
2018-07-19T11:12:13.232Z,33.50
2018-07-19T11:14:41.789Z,33.60
2018-07-19T11:17:10.230Z,34.00
2018-07-19T11:19:39.317Z,33.50
2018-07-19T11:22:07.782Z,32.90
2018-07-19T11:24:36.222Z,32.00
2018-07-19T11:27:04.897Z,31.40
2018-07-19T11:29:33.438Z,30.70
2018-07-19T11:32:01.869Z,30.00
2018-07-19T11:34:30.379Z,30.00
2018-07-19T11:36:58.849Z,29.60
2018-07-19T11:39:27.284Z,30.00
2018-07-19T11:41:55.698Z,30.80
2018-07-19T11:44:24.151Z,32.10
2018-07-19T11:46:52.610Z,33.10
2018-07-19T11:49:21.098Z,33.10
2018-07-19T11:51:49.526Z,33.90
2018-07-19T11:54:17.961Z,34.60
2018-07-19T11:56:46.392Z,34.20
2018-07-19T11:59:14.813Z,34.90
2018-07-19T12:01:43.287Z,34.70
2018-07-19T12:04:11.958Z,34.70
2018-07-19T12:06:40.501Z,34.30
2018-07-19T12:09:10.781Z,33.70
2018-07-19T12:11:39.210Z,33.50
2018-07-19T12:14:07.794Z,33.40
2018-07-19T12:16:36.209Z,33.50
2018-07-19T12:19:04.693Z,33.70
2018-07-19T12:21:33.242Z,33.90
2018-07-19T12:24:01.990Z,34.10
2018-07-19T12:26:30.478Z,34.50
2018-07-19T12:28:59.130Z,34.10
2018-07-19T12:31:27.550Z,34.80
2018-07-19T12:33:56.004Z,34.50
2018-07-19T12:36:24.426Z,34.00
2018-07-19T12:38:52.867Z,33.00
2018-07-19T12:41:21.304Z,32.60
2018-07-19T12:43:49.730Z,31.70
2018-07-19T12:46:18.145Z,30.90
2018-07-19T12:48:46.554Z,31.10
2018-07-19T12:51:14.985Z,31.60
2018-07-19T12:53:43.396Z,32.20
2018-07-19T12:56:11.826Z,32.10
2018-07-19T12:58:40.261Z,32.00
2018-07-19T13:01:08.816Z,31.40
2018-07-19T13:03:37.253Z,31.10
2018-07-19T13:06:05.691Z,30.80
2018-07-19T13:08:34.130Z,30.70
2018-07-19T13:11:02.590Z,30.00
2018-07-19T13:13:30.993Z,30.10
2018-07-19T13:15:59.420Z,29.50
2018-07-19T13:18:27.857Z,29.20
2018-07-19T13:20:56.308Z,29.00
2018-07-19T13:25:52.901Z,29.00
2018-07-19T13:28:21.364Z,28.80
2018-07-19T13:30:49.832Z,28.70
2018-07-19T13:33:18.255Z,29.20
2018-07-19T13:35:46.709Z,29.30
2018-07-19T13:38:15.113Z,29.70
2018-07-19T13:40:43.582Z,29.70
2018-07-19T13:43:11.988Z,30.20
2018-07-19T13:45:40.401Z,30.50
2018-07-19T13:48:08.824Z,30.40
2018-07-19T13:50:37.283Z,30.70
2018-07-19T13:53:32.475Z,31.20
2018-07-19T13:56:00.893Z,30.60
2018-07-19T13:58:29.378Z,30.50
2018-07-19T14:00:57.842Z,30.30
2018-07-19T14:03:26.257Z,30.20
2018-07-19T14:05:54.829Z,30.00
2018-07-19T14:08:23.751Z,30.30
2018-07-19T14:10:52.199Z,30.10
2018-07-19T14:13:20.749Z,30.10
2018-07-19T14:15:49.342Z,30.40
2018-07-19T14:18:17.776Z,30.40
2018-07-19T14:20:46.181Z,30.20
2018-07-19T14:23:14.594Z,30.30
2018-07-19T14:25:43.622Z,30.10
2018-07-19T14:28:12.406Z,30.20
2018-07-19T14:30:40.984Z,30.20
2018-07-19T14:33:09.890Z,30.20
2018-07-19T14:35:38.318Z,30.20
2018-07-19T14:38:07.235Z,30.10
2018-07-19T14:40:35.760Z,29.80
2018-07-19T14:43:04.201Z,29.70
2018-07-19T14:45:32.672Z,29.30
2018-07-19T14:48:01.461Z,29.30
2018-07-19T14:50:30.389Z,29.60
2018-07-19T14:52:59.456Z,29.30
2018-07-19T14:55:28.235Z,29.50
2018-07-19T14:57:56.714Z,29.60
2018-07-19T15:00:26.391Z,29.10
2018-07-19T15:02:55.392Z,29.20
2018-07-19T15:05:23.840Z,29.40
2018-07-19T15:07:53.458Z,29.40
2018-07-19T15:10:22.023Z,29.30
2018-07-19T15:12:50.508Z,29.20
2018-07-19T15:15:18.940Z,29.40
2018-07-19T15:17:47.445Z,29.30
2018-07-19T15:20:15.969Z,29.20
2018-07-19T15:22:44.492Z,29.20
2018-07-19T15:25:12.920Z,29.30
2018-07-19T15:27:41.367Z,29.00
2018-07-19T15:30:09.848Z,29.30
2018-07-19T15:32:38.274Z,29.10
2018-07-19T15:35:08.391Z,28.90
2018-07-19T15:37:37.867Z,28.90
2018-07-19T15:40:06.845Z,28.70
2018-07-19T15:42:35.245Z,28.50
2018-07-19T15:45:03.822Z,28.50
2018-07-19T15:47:32.264Z,28.50
2018-07-19T15:50:00.691Z,28.60
2018-07-19T15:52:29.161Z,28.70
2018-07-19T15:54:57.595Z,28.70
2018-07-19T15:57:26.138Z,28.40
2018-07-19T15:59:54.584Z,28.30
2018-07-19T16:02:23.013Z,28.20
2018-07-19T16:04:51.494Z,28.20
2018-07-19T16:07:19.942Z,28.10
2018-07-19T16:09:48.378Z,28.10
2018-07-19T16:12:16.864Z,27.90
2018-07-19T16:14:45.359Z,27.90
2018-07-19T16:17:13.798Z,27.80
2018-07-19T16:19:42.228Z,27.80
2018-07-19T16:22:10.671Z,27.70
2018-07-19T16:24:39.218Z,27.60
2018-07-19T16:27:07.702Z,27.60
2018-07-19T16:29:36.119Z,27.50
2018-07-19T16:32:04.561Z,27.40
2018-07-19T16:34:33.007Z,27.40
2018-07-19T16:37:01.439Z,27.50
2018-07-19T16:39:29.908Z,27.60
2018-07-19T16:41:58.345Z,27.60
2018-07-19T16:44:26.809Z,27.60
2018-07-19T16:46:55.262Z,27.70
2018-07-19T16:49:23.690Z,27.70
2018-07-19T16:51:52.150Z,27.50
2018-07-19T16:54:20.610Z,27.40
2018-07-19T16:56:49.040Z,27.30
2018-07-19T16:59:17.528Z,27.30
2018-07-19T17:01:46.029Z,27.20
2018-07-19T17:04:14.461Z,27.10
2018-07-19T17:06:44.930Z,27.10
2018-07-19T17:09:13.373Z,27.00
2018-07-19T17:11:41.927Z,26.90
2018-07-19T17:14:10.401Z,26.90
2018-07-19T17:16:38.854Z,26.90
2018-07-19T17:19:07.279Z,26.70
2018-07-19T17:21:35.811Z,26.60
2018-07-19T17:24:05.050Z,26.50
2018-07-19T17:26:35.866Z,26.50
2018-07-19T17:29:05.050Z,26.40
2018-07-19T17:31:34.799Z,26.40
2018-07-19T17:34:03.970Z,26.40
2018-07-19T17:36:32.418Z,26.40
2018-07-19T17:39:00.858Z,26.30
2018-07-19T17:41:29.318Z,26.20
2018-07-19T17:43:57.777Z,26.10
2018-07-19T17:46:26.338Z,26.10
2018-07-19T17:48:54.773Z,26.00
2018-07-19T17:51:23.198Z,25.90
2018-07-19T17:53:51.645Z,25.90
2018-07-19T17:56:22.134Z,25.80
2018-07-19T17:58:50.619Z,25.70
2018-07-19T18:01:19.708Z,25.70
2018-07-19T18:03:48.157Z,25.50
2018-07-19T18:06:16.583Z,25.30
2018-07-19T18:08:45.025Z,25.10
2018-07-19T18:11:13.483Z,25.10
2018-07-19T18:13:41.923Z,25.00
2018-07-19T18:16:10.337Z,24.90
2018-07-19T18:18:38.774Z,24.70
2018-07-19T18:21:07.229Z,24.60
2018-07-19T18:23:35.670Z,24.50
2018-07-19T18:26:04.102Z,24.50
2018-07-19T18:28:33.752Z,24.50
2018-07-19T18:31:02.206Z,24.50
2018-07-19T18:33:30.697Z,24.40
2018-07-19T18:38:27.276Z,24.30
2018-07-19T18:41:02.275Z,24.20
2018-07-19T18:43:30.726Z,24.10
2018-07-19T18:45:59.200Z,24.00
2018-07-19T18:48:27.636Z,23.80
2018-07-19T18:51:04.765Z,23.70
2018-07-19T18:53:34.898Z,23.60
2018-07-19T18:56:03.334Z,23.50
2018-07-19T18:58:31.793Z,23.30
2018-07-19T19:01:00.253Z,23.10
2018-07-19T19:03:28.669Z,22.90
2018-07-19T19:05:57.118Z,22.80
2018-07-19T19:08:25.642Z,22.60
2018-07-19T19:10:54.324Z,22.40
2018-07-19T19:13:23.031Z,22.20
2018-07-19T19:18:20.627Z,21.90
2018-07-19T19:20:49.423Z,21.70
2018-07-19T19:23:17.985Z,21.50
2018-07-19T19:25:50.785Z,21.30
2018-07-19T19:28:19.617Z,21.10
2018-07-19T19:30:48.128Z,20.90
2018-07-19T19:33:16.980Z,20.80
2018-07-19T19:35:45.597Z,20.50
2018-07-19T19:38:14.127Z,20.40
2018-07-19T19:40:43.687Z,20.30
2018-07-19T19:43:12.257Z,20.10
2018-07-19T19:45:41.243Z,19.90
2018-07-19T19:48:09.811Z,19.80
2018-07-19T19:50:38.310Z,19.70
2018-07-19T19:53:09.360Z,19.60
2018-07-19T19:55:38.097Z,19.50
2018-07-19T19:58:06.814Z,19.30
2018-07-19T20:00:35.486Z,19.20
2018-07-19T20:03:04.264Z,19.10
2018-07-19T20:05:32.809Z,18.90
2018-07-19T20:08:01.554Z,18.70
2018-07-19T20:10:30.184Z,18.60
2018-07-19T20:12:58.761Z,18.50
2018-07-19T20:15:27.429Z,18.40
2018-07-19T20:17:56.286Z,18.20
2018-07-19T20:20:25.034Z,18.30
2018-07-19T20:22:53.776Z,18.10
2018-07-19T20:25:22.343Z,18.00
2018-07-19T20:28:07.088Z,17.90
2018-07-19T20:30:37.754Z,17.80
2018-07-19T20:33:06.467Z,17.70
2018-07-19T20:35:35.389Z,17.60
2018-07-19T20:38:04.445Z,17.50
2018-07-19T20:40:34.009Z,17.50
2018-07-19T20:43:02.543Z,17.30
2018-07-19T20:45:31.391Z,17.20
2018-07-19T20:47:59.994Z,17.10
2018-07-19T20:50:28.731Z,17.10
2018-07-19T20:52:57.354Z,17.10
2018-07-19T20:55:25.838Z,17.00
2018-07-19T20:57:54.391Z,16.90
2018-07-19T21:00:22.912Z,16.80
2018-07-19T21:02:53.401Z,16.80
2018-07-19T21:05:21.899Z,16.70
2018-07-19T21:07:50.329Z,16.60
2018-07-19T21:12:46.926Z,16.50
2018-07-19T21:15:15.394Z,16.50
2018-07-19T21:17:47.906Z,16.40
2018-07-19T21:20:19.439Z,16.30
2018-07-19T21:22:51.187Z,16.30
2018-07-19T21:25:21.564Z,16.10
2018-07-19T21:27:50.668Z,16.10
2018-07-19T21:30:20.275Z,16.00
2018-07-19T21:32:49.793Z,16.00
2018-07-19T21:35:18.297Z,15.90
2018-07-19T21:37:46.742Z,15.90
2018-07-19T21:40:15.278Z,15.80
2018-07-19T21:42:43.768Z,15.80
2018-07-19T21:45:12.216Z,15.80
2018-07-19T21:47:40.645Z,15.70
2018-07-19T21:50:09.117Z,15.60
2018-07-19T21:52:37.578Z,15.60
2018-07-19T21:55:06.006Z,15.60
2018-07-19T21:57:34.469Z,15.60
2018-07-19T22:00:02.940Z,15.60
2018-07-19T22:02:31.387Z,15.50
2018-07-19T22:04:59.854Z,15.40
2018-07-19T22:07:28.277Z,15.30
2018-07-19T22:09:56.683Z,15.30
2018-07-19T22:12:25.177Z,15.20
2018-07-19T22:14:53.614Z,15.20
2018-07-19T22:17:23.085Z,15.20
2018-07-19T22:19:51.521Z,15.20
2018-07-19T22:22:19.965Z,15.10
2018-07-19T22:24:48.406Z,15.00
2018-07-19T22:27:16.828Z,15.00
2018-07-19T22:29:45.271Z,15.00
2018-07-19T22:32:13.726Z,14.90
2018-07-19T22:34:42.169Z,14.90
2018-07-19T22:37:10.593Z,14.80
2018-07-19T22:39:39.069Z,14.80
2018-07-19T22:42:07.509Z,14.80
2018-07-19T22:44:35.981Z,14.70
2018-07-19T22:47:04.439Z,14.70
2018-07-19T22:49:32.861Z,14.60
2018-07-19T22:52:01.294Z,14.60
2018-07-19T22:54:29.753Z,14.50
2018-07-19T22:56:58.227Z,14.50
2018-07-19T22:59:26.665Z,14.50
2018-07-19T23:01:55.109Z,14.50
2018-07-19T23:04:23.596Z,14.50
2018-07-19T23:06:53.054Z,14.60
2018-07-19T23:09:22.552Z,14.50
2018-07-19T23:11:50.954Z,14.60
2018-07-19T23:14:19.439Z,14.50
2018-07-19T23:16:47.902Z,14.40
2018-07-19T23:19:16.390Z,14.40
2018-07-19T23:21:44.815Z,14.30
2018-07-19T23:24:13.234Z,14.20
2018-07-19T23:26:41.720Z,14.20
2018-07-19T23:29:10.164Z,14.30
2018-07-19T23:31:38.844Z,14.20
2018-07-19T23:34:07.398Z,14.20
2018-07-19T23:36:41.100Z,14.20
2018-07-19T23:39:15.332Z,14.10
2018-07-19T23:42:01.944Z,14.00
2018-07-19T23:44:34.202Z,13.90
2018-07-19T23:47:06.569Z,13.90
2018-07-19T23:49:35.007Z,13.80
2018-07-19T23:52:03.482Z,13.80
2018-07-19T23:54:31.957Z,13.80
2018-07-19T23:57:00.509Z,13.70
2018-07-19T23:59:29.059Z,13.70
